sensor_id;sensor_type;location;lat;lon;timestamp;pressure;altitude;pressure_sealevel;temperature;humidity
4024;BME280;2026;51.002;13.668;2023-05-10T00:04:15;98524.81;;;12.38;59.67
4024;BME280;2026;51.002;13.668;2023-05-10T00:09:19;98514.22;;;12.50;58.49
4024;BME280;2026;51.002;13.668;2023-05-10T00:14:21;98510.13;;;12.42;59.47
4024;BME280;2026;51.002;13.668;2023-05-10T00:19:26;98503.78;;;12.38;59.24
4024;BME280;2026;51.002;13.668;2023-05-10T00:24:29;98510.09;;;12.25;60.60
4024;BME280;2026;51.002;13.668;2023-05-10T00:29:32;98501.28;;;12.31;59.87
4024;BME280;2026;51.002;13.668;2023-05-10T00:34:36;98489.06;;;12.25;59.59
4024;BME280;2026;51.002;13.668;2023-05-10T00:39:40;98491.09;;;12.18;60.38
4024;BME280;2026;51.002;13.668;2023-05-10T00:44:42;98484.75;;;12.02;60.71
4024;BME280;2026;51.002;13.668;2023-05-10T00:49:47;98475.97;;;11.96;61.36
4024;BME280;2026;51.002;13.668;2023-05-10T00:54:52;98485.59;;;11.90;61.51
4024;BME280;2026;51.002;13.668;2023-05-10T00:59:55;98478.22;;;12.04;60.79
4024;BME280;2026;51.002;13.668;2023-05-10T01:04:59;98471.47;;;11.79;61.82
4024;BME280;2026;51.002;13.668;2023-05-10T01:10:04;98472.69;;;11.89;61.56
4024;BME280;2026;51.002;13.668;2023-05-10T01:15:08;98465.88;;;11.76;61.91
4024;BME280;2026;51.002;13.668;2023-05-10T01:20:14;98465.06;;;11.75;61.83
4024;BME280;2026;51.002;13.668;2023-05-10T01:25:44;98467.47;;;11.77;61.72
4024;BME280;2026;51.002;13.668;2023-05-10T01:31:06;98457.56;;;11.67;61.84
4024;BME280;2026;51.002;13.668;2023-05-10T01:36:19;98452.19;;;11.62;62.13
4024;BME280;2026;51.002;13.668;2023-05-10T01:41:31;98455.97;;;11.66;61.77
4024;BME280;2026;51.002;13.668;2023-05-10T01:46:39;98456.94;;;11.36;63.52
4024;BME280;2026;51.002;13.668;2023-05-10T01:51:45;98457.97;;;11.23;63.44
4024;BME280;2026;51.002;13.668;2023-05-10T01:56:54;98458.75;;;11.35;63.35
4024;BME280;2026;51.002;13.668;2023-05-10T02:01:59;98464.94;;;11.17;63.95
4024;BME280;2026;51.002;13.668;2023-05-10T02:07:05;98456.13;;;11.23;64.01
4024;BME280;2026;51.002;13.668;2023-05-10T02:12:09;98454.78;;;11.21;63.70
4024;BME280;2026;51.002;13.668;2023-05-10T02:17:15;98459.47;;;11.07;64.06
4024;BME280;2026;51.002;13.668;2023-05-10T02:22:20;98463.94;;;10.82;66.18
4024;BME280;2026;51.002;13.668;2023-05-10T02:27:25;98451.47;;;10.54;68.00
4024;BME280;2026;51.002;13.668;2023-05-10T02:32:30;98449.50;;;10.49;68.30
4024;BME280;2026;51.002;13.668;2023-05-10T02:37:35;98450.75;;;10.23;69.77
4024;BME280;2026;51.002;13.668;2023-05-10T02:42:41;98443.44;;;10.25;69.58
4024;BME280;2026;51.002;13.668;2023-05-10T02:47:45;98448.44;;;10.14;69.95
4024;BME280;2026;51.002;13.668;2023-05-10T02:52:50;98443.38;;;10.01;70.42
4024;BME280;2026;51.002;13.668;2023-05-10T02:57:57;98442.38;;;10.14;69.60
4024;BME280;2026;51.002;13.668;2023-05-10T03:03:01;98446.00;;;10.01;70.49
4024;BME280;2026;51.002;13.668;2023-05-10T03:08:05;98455.56;;;9.95;71.47
4024;BME280;2026;51.002;13.668;2023-05-10T03:13:13;98447.72;;;9.76;72.15
4024;BME280;2026;51.002;13.668;2023-05-10T03:18:22;98447.00;;;9.69;72.79
4024;BME280;2026;51.002;13.668;2023-05-10T03:23:33;98438.72;;;9.72;72.11
4024;BME280;2026;51.002;13.668;2023-05-10T03:28:38;98434.81;;;9.94;71.61
4024;BME280;2026;51.002;13.668;2023-05-10T03:33:46;98429.88;;;10.28;69.69
4024;BME280;2026;51.002;13.668;2023-05-10T03:38:54;98435.28;;;10.57;68.44
4024;BME280;2026;51.002;13.668;2023-05-10T03:43:57;98448.53;;;10.62;68.33
4024;BME280;2026;51.002;13.668;2023-05-10T03:48:59;98443.84;;;10.52;68.51
4024;BME280;2026;51.002;13.668;2023-05-10T03:54:04;98447.84;;;10.55;69.04
4024;BME280;2026;51.002;13.668;2023-05-10T03:59:07;98443.03;;;10.76;68.07
4024;BME280;2026;51.002;13.668;2023-05-10T04:04:10;98444.06;;;10.63;68.59
4024;BME280;2026;51.002;13.668;2023-05-10T04:09:15;98446.13;;;10.60;69.17
4024;BME280;2026;51.002;13.668;2023-05-10T04:14:18;98444.63;;;10.77;68.36
4024;BME280;2026;51.002;13.668;2023-05-10T04:19:21;98443.84;;;12.06;64.15
4024;BME280;2026;51.002;13.668;2023-05-10T04:24:26;98440.28;;;13.20;59.34
4024;BME280;2026;51.002;13.668;2023-05-10T04:29:29;98430.66;;;14.03;56.37
4024;BME280;2026;51.002;13.668;2023-05-10T04:34:32;98433.13;;;14.80;53.84
4024;BME280;2026;51.002;13.668;2023-05-10T04:39:37;98434.84;;;15.66;51.78
4024;BME280;2026;51.002;13.668;2023-05-10T04:44:42;98427.25;;;15.90;50.34
4024;BME280;2026;51.002;13.668;2023-05-10T04:49:45;98420.13;;;16.48;49.33
4024;BME280;2026;51.002;13.668;2023-05-10T04:54:50;98423.00;;;16.00;50.85
4024;BME280;2026;51.002;13.668;2023-05-10T04:59:52;98427.19;;;15.70;51.15
4024;BME280;2026;51.002;13.668;2023-05-10T05:04:55;98420.66;;;16.45;48.86
4024;BME280;2026;51.002;13.668;2023-05-10T05:10:00;98417.94;;;16.81;48.78
4024;BME280;2026;51.002;13.668;2023-05-10T05:15:04;98420.41;;;16.20;49.31
4024;BME280;2026;51.002;13.668;2023-05-10T05:20:10;98436.03;;;15.32;51.37
4024;BME280;2026;51.002;13.668;2023-05-10T05:25:16;98427.28;;;16.37;50.02
4024;BME280;2026;51.002;13.668;2023-05-10T05:30:20;98416.09;;;16.87;48.58
4024;BME280;2026;51.002;13.668;2023-05-10T05:35:23;98421.75;;;16.28;49.18
4024;BME280;2026;51.002;13.668;2023-05-10T05:40:27;98424.09;;;16.04;50.19
4024;BME280;2026;51.002;13.668;2023-05-10T05:45:30;98422.00;;;16.32;49.50
4024;BME280;2026;51.002;13.668;2023-05-10T05:50:33;98433.59;;;16.67;49.04
4024;BME280;2026;51.002;13.668;2023-05-10T05:55:38;98434.72;;;17.48;47.05
4024;BME280;2026;51.002;13.668;2023-05-10T06:00:40;98437.47;;;17.77;45.90
4024;BME280;2026;51.002;13.668;2023-05-10T06:05:43;98441.53;;;16.77;48.06
4024;BME280;2026;51.002;13.668;2023-05-10T06:10:48;98440.47;;;17.65;47.07
4024;BME280;2026;51.002;13.668;2023-05-10T06:15:51;98449.22;;;17.66;47.01
4024;BME280;2026;51.002;13.668;2023-05-10T06:20:54;98446.84;;;18.09;46.03
4024;BME280;2026;51.002;13.668;2023-05-10T06:25:58;98444.81;;;18.65;44.95
4024;BME280;2026;51.002;13.668;2023-05-10T06:31:01;98448.13;;;18.52;45.19
4024;BME280;2026;51.002;13.668;2023-05-10T06:36:04;98445.16;;;19.13;44.59
4024;BME280;2026;51.002;13.668;2023-05-10T06:41:08;98444.00;;;18.94;45.02
4024;BME280;2026;51.002;13.668;2023-05-10T06:46:11;98447.69;;;18.69;45.51
4024;BME280;2026;51.002;13.668;2023-05-10T06:51:14;98448.69;;;19.03;43.78
4024;BME280;2026;51.002;13.668;2023-05-10T06:56:18;98449.13;;;19.15;44.45
4024;BME280;2026;51.002;13.668;2023-05-10T07:01:23;98452.72;;;19.49;43.63
4024;BME280;2026;51.002;13.668;2023-05-10T07:06:26;98449.34;;;19.62;42.69
4024;BME280;2026;51.002;13.668;2023-05-10T07:11:35;98453.91;;;20.00;42.60
4024;BME280;2026;51.002;13.668;2023-05-10T07:16:39;98459.00;;;19.77;43.08
4024;BME280;2026;51.002;13.668;2023-05-10T07:21:42;98456.28;;;20.54;41.92
4024;BME280;2026;51.002;13.668;2023-05-10T07:26:46;98451.78;;;20.36;41.86
4024;BME280;2026;51.002;13.668;2023-05-10T07:31:49;98460.19;;;20.43;42.15
4024;BME280;2026;51.002;13.668;2023-05-10T07:36:52;98458.81;;;21.35;41.00
4024;BME280;2026;51.002;13.668;2023-05-10T07:41:56;98461.50;;;21.21;40.76
4024;BME280;2026;51.002;13.668;2023-05-10T07:46:59;98462.84;;;21.60;38.86
4024;BME280;2026;51.002;13.668;2023-05-10T07:52:03;98454.22;;;20.65;41.59
4024;BME280;2026;51.002;13.668;2023-05-10T07:57:07;98453.56;;;21.58;41.25
4024;BME280;2026;51.002;13.668;2023-05-10T08:02:10;98454.97;;;21.41;40.75
4024;BME280;2026;51.002;13.668;2023-05-10T08:07:13;98454.56;;;21.99;40.38
4024;BME280;2026;51.002;13.668;2023-05-10T08:12:17;98451.72;;;21.95;39.22
4024;BME280;2026;51.002;13.668;2023-05-10T08:17:20;98451.59;;;21.63;40.45
4024;BME280;2026;51.002;13.668;2023-05-10T08:22:25;98454.59;;;21.20;41.18
4024;BME280;2026;51.002;13.668;2023-05-10T08:27:29;98459.22;;;21.00;41.63
4024;BME280;2026;51.002;13.668;2023-05-10T08:32:32;98461.19;;;21.36;41.66
4024;BME280;2026;51.002;13.668;2023-05-10T08:37:36;98469.91;;;21.28;41.30
4024;BME280;2026;51.002;13.668;2023-05-10T08:42:43;98468.78;;;21.57;41.13
4024;BME280;2026;51.002;13.668;2023-05-10T08:47:51;98482.63;;;22.10;40.20
4024;BME280;2026;51.002;13.668;2023-05-10T08:52:58;98486.88;;;21.32;42.06
4024;BME280;2026;51.002;13.668;2023-05-10T08:58:04;98489.50;;;21.88;41.33
4024;BME280;2026;51.002;13.668;2023-05-10T09:03:07;98495.63;;;22.26;40.17
4024;BME280;2026;51.002;13.668;2023-05-10T09:08:10;98491.13;;;21.33;42.60
4024;BME280;2026;51.002;13.668;2023-05-10T09:13:16;98502.75;;;22.39;41.19
4024;BME280;2026;51.002;13.668;2023-05-10T09:18:20;98501.44;;;22.28;40.95
4024;BME280;2026;51.002;13.668;2023-05-10T09:23:23;98495.94;;;22.70;40.27
4024;BME280;2026;51.002;13.668;2023-05-10T09:28:34;98512.84;;;22.42;39.80
4024;BME280;2026;51.002;13.668;2023-05-10T09:33:53;98507.84;;;22.04;41.29
4024;BME280;2026;51.002;13.668;2023-05-10T09:38:57;98506.38;;;21.98;42.20
4024;BME280;2026;51.002;13.668;2023-05-10T09:44:01;98515.63;;;22.37;41.32
4024;BME280;2026;51.002;13.668;2023-05-10T09:49:05;98520.50;;;22.58;40.06
4024;BME280;2026;51.002;13.668;2023-05-10T09:54:09;98511.47;;;22.99;40.51
4024;BME280;2026;51.002;13.668;2023-05-10T09:59:14;98511.63;;;22.71;40.44
4024;BME280;2026;51.002;13.668;2023-05-10T10:04:17;98506.53;;;22.61;41.44
4024;BME280;2026;51.002;13.668;2023-05-10T10:09:20;98511.31;;;22.27;42.26
4024;BME280;2026;51.002;13.668;2023-05-10T10:14:24;98512.00;;;22.10;42.07
4024;BME280;2026;51.002;13.668;2023-05-10T10:19:28;98509.38;;;22.19;42.19
4024;BME280;2026;51.002;13.668;2023-05-10T10:24:31;98515.69;;;21.72;42.43
4024;BME280;2026;51.002;13.668;2023-05-10T10:29:41;98520.88;;;22.05;42.94
4024;BME280;2026;51.002;13.668;2023-05-10T10:34:47;98517.69;;;22.17;41.03
4024;BME280;2026;51.002;13.668;2023-05-10T10:39:50;98517.69;;;22.40;41.85
4024;BME280;2026;51.002;13.668;2023-05-10T10:45:11;98523.22;;;22.67;41.21
4024;BME280;2026;51.002;13.668;2023-05-10T10:50:15;98527.78;;;22.66;42.15
4024;BME280;2026;51.002;13.668;2023-05-10T10:55:19;98517.63;;;22.08;42.22
4024;BME280;2026;51.002;13.668;2023-05-10T11:00:27;98531.38;;;22.39;41.41
4024;BME280;2026;51.002;13.668;2023-05-10T11:05:39;98513.25;;;22.58;41.31
4024;BME280;2026;51.002;13.668;2023-05-10T11:11:01;98529.22;;;21.90;43.04
4024;BME280;2026;51.002;13.668;2023-05-10T11:16:20;98523.88;;;21.76;42.35
4024;BME280;2026;51.002;13.668;2023-05-10T11:21:25;98520.66;;;22.16;42.84
4024;BME280;2026;51.002;13.668;2023-05-10T11:26:31;98527.25;;;21.67;43.00
4024;BME280;2026;51.002;13.668;2023-05-10T11:31:41;98527.28;;;22.18;43.76
4024;BME280;2026;51.002;13.668;2023-05-10T11:36:50;98527.91;;;22.01;43.50
4024;BME280;2026;51.002;13.668;2023-05-10T11:41:55;98536.38;;;22.17;42.06
4024;BME280;2026;51.002;13.668;2023-05-10T11:47:00;98529.19;;;22.41;43.15
4024;BME280;2026;51.002;13.668;2023-05-10T11:52:04;98524.44;;;22.60;41.68
4024;BME280;2026;51.002;13.668;2023-05-10T11:57:07;98521.03;;;22.23;42.62
4024;BME280;2026;51.002;13.668;2023-05-10T12:02:12;98537.34;;;22.21;42.60
4024;BME280;2026;51.002;13.668;2023-05-10T12:07:15;98539.31;;;22.53;42.21
4024;BME280;2026;51.002;13.668;2023-05-10T12:12:18;98536.50;;;22.12;41.69
4024;BME280;2026;51.002;13.668;2023-05-10T12:17:27;98547.31;;;22.30;42.88
4024;BME280;2026;51.002;13.668;2023-05-10T12:22:30;98552.69;;;22.53;42.87
4024;BME280;2026;51.002;13.668;2023-05-10T12:27:36;98549.50;;;21.91;43.57
4024;BME280;2026;51.002;13.668;2023-05-10T12:32:41;98557.06;;;22.12;42.85
4024;BME280;2026;51.002;13.668;2023-05-10T12:37:44;98556.03;;;22.21;41.82
4024;BME280;2026;51.002;13.668;2023-05-10T12:42:47;98557.75;;;22.40;42.00
4024;BME280;2026;51.002;13.668;2023-05-10T12:47:52;98561.03;;;22.37;42.43
4024;BME280;2026;51.002;13.668;2023-05-10T12:52:55;98566.50;;;22.32;40.57
4024;BME280;2026;51.002;13.668;2023-05-10T12:57:58;98572.41;;;22.65;41.26
4024;BME280;2026;51.002;13.668;2023-05-10T13:03:02;98566.75;;;22.67;41.39
4024;BME280;2026;51.002;13.668;2023-05-10T13:08:05;98575.22;;;22.23;40.24
4024;BME280;2026;51.002;13.668;2023-05-10T13:13:08;98569.44;;;22.07;39.23
4024;BME280;2026;51.002;13.668;2023-05-10T13:18:13;98573.41;;;21.96;39.90
4024;BME280;2026;51.002;13.668;2023-05-10T13:23:16;98578.66;;;21.87;40.71
4024;BME280;2026;51.002;13.668;2023-05-10T13:28:19;98568.44;;;22.40;38.75
4024;BME280;2026;51.002;13.668;2023-05-10T13:33:23;98576.56;;;21.98;41.99
4024;BME280;2026;51.002;13.668;2023-05-10T13:38:26;98567.97;;;22.01;42.24
4024;BME280;2026;51.002;13.668;2023-05-10T13:43:29;98565.53;;;22.28;40.24
4024;BME280;2026;51.002;13.668;2023-05-10T13:48:33;98561.72;;;22.43;39.36
4024;BME280;2026;51.002;13.668;2023-05-10T13:53:39;98558.44;;;23.23;38.68
4024;BME280;2026;51.002;13.668;2023-05-10T13:58:43;98566.94;;;22.48;39.67
4024;BME280;2026;51.002;13.668;2023-05-10T14:03:47;98559.84;;;22.06;39.61
4024;BME280;2026;51.002;13.668;2023-05-10T14:08:50;98564.03;;;22.58;38.88
4024;BME280;2026;51.002;13.668;2023-05-10T14:13:53;98561.16;;;22.69;44.59
4024;BME280;2026;51.002;13.668;2023-05-10T14:18:57;98564.31;;;21.83;49.86
4024;BME280;2026;51.002;13.668;2023-05-10T14:24:00;98561.38;;;20.24;53.84
4024;BME280;2026;51.002;13.668;2023-05-10T14:29:03;98566.69;;;20.43;55.91
4024;BME280;2026;51.002;13.668;2023-05-10T14:34:08;98565.38;;;21.54;53.44
4024;BME280;2026;51.002;13.668;2023-05-10T14:39:10;98560.28;;;21.86;51.93
4024;BME280;2026;51.002;13.668;2023-05-10T14:44:14;98558.97;;;21.55;54.93
4024;BME280;2026;51.002;13.668;2023-05-10T14:49:19;98561.44;;;21.65;54.50
4024;BME280;2026;51.002;13.668;2023-05-10T14:54:24;98562.22;;;21.66;54.54
4024;BME280;2026;51.002;13.668;2023-05-10T14:59:27;98559.66;;;21.47;56.33
4024;BME280;2026;51.002;13.668;2023-05-10T15:04:32;98573.38;;;21.54;55.65
4024;BME280;2026;51.002;13.668;2023-05-10T15:09:35;98571.72;;;21.86;55.63
4024;BME280;2026;51.002;13.668;2023-05-10T15:14:38;98575.34;;;22.41;52.99
4024;BME280;2026;51.002;13.668;2023-05-10T15:19:43;98573.19;;;22.43;52.50
4024;BME280;2026;51.002;13.668;2023-05-10T15:24:46;98574.56;;;21.76;55.53
4024;BME280;2026;51.002;13.668;2023-05-10T15:29:48;98569.75;;;21.36;54.74
4024;BME280;2026;51.002;13.668;2023-05-10T15:34:53;98579.00;;;21.10;55.95
4024;BME280;2026;51.002;13.668;2023-05-10T15:39:56;98576.22;;;21.16;55.74
4024;BME280;2026;51.002;13.668;2023-05-10T15:45:05;98578.16;;;20.96;56.11
4024;BME280;2026;51.002;13.668;2023-05-10T15:50:10;98579.88;;;20.86;55.95
4024;BME280;2026;51.002;13.668;2023-05-10T15:55:14;98586.91;;;19.81;59.48
4024;BME280;2026;51.002;13.668;2023-05-10T16:00:18;98589.97;;;19.15;62.78
4024;BME280;2026;51.002;13.668;2023-05-10T16:05:22;98589.66;;;19.46;60.99
4024;BME280;2026;51.002;13.668;2023-05-10T16:10:25;98591.59;;;19.65;61.57
4024;BME280;2026;51.002;13.668;2023-05-10T16:15:28;98587.72;;;19.28;61.44
4024;BME280;2026;51.002;13.668;2023-05-10T16:20:32;98594.75;;;19.91;58.54
4024;BME280;2026;51.002;13.668;2023-05-10T16:25:35;98585.09;;;20.20;58.37
4024;BME280;2026;51.002;13.668;2023-05-10T16:30:39;98598.53;;;19.07;63.47
4024;BME280;2026;51.002;13.668;2023-05-10T16:35:43;98606.16;;;19.43;62.98
4024;BME280;2026;51.002;13.668;2023-05-10T16:40:46;98611.84;;;19.85;61.21
4024;BME280;2026;51.002;13.668;2023-05-10T16:45:49;98614.06;;;19.54;61.99
4024;BME280;2026;51.002;13.668;2023-05-10T16:50:55;98629.91;;;18.65;65.21
4024;BME280;2026;51.002;13.668;2023-05-10T16:55:58;98620.03;;;18.65;65.67
4024;BME280;2026;51.002;13.668;2023-05-10T17:01:01;98628.72;;;18.36;65.61
4024;BME280;2026;51.002;13.668;2023-05-10T17:06:06;98640.75;;;18.18;66.65
4024;BME280;2026;51.002;13.668;2023-05-10T17:11:09;98643.59;;;18.37;66.27
4024;BME280;2026;51.002;13.668;2023-05-10T17:16:12;98649.88;;;18.92;64.30
4024;BME280;2026;51.002;13.668;2023-05-10T17:21:17;98645.63;;;18.96;65.39
4024;BME280;2026;51.002;13.668;2023-05-10T17:26:20;98648.63;;;18.39;66.10
4024;BME280;2026;51.002;13.668;2023-05-10T17:31:23;98641.78;;;18.73;66.07
4024;BME280;2026;51.002;13.668;2023-05-10T17:36:27;98662.16;;;18.82;65.46
4024;BME280;2026;51.002;13.668;2023-05-10T17:41:30;98661.06;;;17.26;71.61
4024;BME280;2026;51.002;13.668;2023-05-10T17:46:34;98663.97;;;17.45;71.86
4024;BME280;2026;51.002;13.668;2023-05-10T17:51:38;98666.25;;;17.98;69.77
4024;BME280;2026;51.002;13.668;2023-05-10T17:56:42;98676.13;;;17.56;70.70
4024;BME280;2026;51.002;13.668;2023-05-10T18:01:45;98677.72;;;17.68;70.33
4024;BME280;2026;51.002;13.668;2023-05-10T18:06:49;98675.59;;;17.75;70.25
4024;BME280;2026;51.002;13.668;2023-05-10T18:11:52;98683.50;;;17.91;70.88
4024;BME280;2026;51.002;13.668;2023-05-10T18:16:55;98686.47;;;17.68;71.18
4024;BME280;2026;51.002;13.668;2023-05-10T18:21:59;98684.63;;;17.64;71.12
4024;BME280;2026;51.002;13.668;2023-05-10T18:27:03;98681.97;;;17.53;70.81
4024;BME280;2026;51.002;13.668;2023-05-10T18:32:06;98689.91;;;17.69;70.33
4024;BME280;2026;51.002;13.668;2023-05-10T18:37:10;98691.75;;;17.79;70.62
4024;BME280;2026;51.002;13.668;2023-05-10T18:42:14;98696.28;;;17.63;70.46
4024;BME280;2026;51.002;13.668;2023-05-10T18:47:17;98702.66;;;17.41;70.67
4024;BME280;2026;51.002;13.668;2023-05-10T18:52:21;98704.53;;;17.61;72.10
4024;BME280;2026;51.002;13.668;2023-05-10T18:57:24;98712.47;;;17.56;71.17
4024;BME280;2026;51.002;13.668;2023-05-10T19:02:27;98707.19;;;17.45;71.54
4024;BME280;2026;51.002;13.668;2023-05-10T19:07:32;98718.28;;;17.32;72.04
4024;BME280;2026;51.002;13.668;2023-05-10T19:12:35;98726.50;;;17.20;72.95
4024;BME280;2026;51.002;13.668;2023-05-10T19:17:38;98735.47;;;17.09;73.43
4024;BME280;2026;51.002;13.668;2023-05-10T19:22:45;98744.47;;;17.08;73.76
4024;BME280;2026;51.002;13.668;2023-05-10T19:28:08;98741.84;;;17.02;73.67
4024;BME280;2026;51.002;13.668;2023-05-10T19:33:12;98739.97;;;17.03;74.35
4024;BME280;2026;51.002;13.668;2023-05-10T19:38:18;98740.75;;;16.98;74.27
4024;BME280;2026;51.002;13.668;2023-05-10T19:43:22;98740.44;;;16.89;74.99
4024;BME280;2026;51.002;13.668;2023-05-10T19:48:25;98742.28;;;16.84;75.10
4024;BME280;2026;51.002;13.668;2023-05-10T19:53:30;98735.63;;;16.71;76.14
4024;BME280;2026;51.002;13.668;2023-05-10T19:58:33;98741.91;;;16.54;76.23
4024;BME280;2026;51.002;13.668;2023-05-10T20:03:36;98743.19;;;16.41;77.11
4024;BME280;2026;51.002;13.668;2023-05-10T20:08:41;98743.66;;;16.28;77.26
4024;BME280;2026;51.002;13.668;2023-05-10T20:13:44;98747.75;;;16.03;78.60
4024;BME280;2026;51.002;13.668;2023-05-10T20:18:47;98740.28;;;15.94;79.03
4024;BME280;2026;51.002;13.668;2023-05-10T20:23:51;98740.78;;;15.91;79.32
4024;BME280;2026;51.002;13.668;2023-05-10T20:28:54;98741.72;;;15.75;79.64
4024;BME280;2026;51.002;13.668;2023-05-10T20:33:57;98747.50;;;15.72;79.76
4024;BME280;2026;51.002;13.668;2023-05-10T20:39:01;98752.59;;;15.46;81.15
4024;BME280;2026;51.002;13.668;2023-05-10T20:44:04;98753.78;;;15.33;82.20
4024;BME280;2026;51.002;13.668;2023-05-10T20:49:07;98749.34;;;15.11;83.24
4024;BME280;2026;51.002;13.668;2023-05-10T20:54:12;98757.44;;;14.99;83.60
4024;BME280;2026;51.002;13.668;2023-05-10T20:59:15;98758.09;;;14.89;84.14
4024;BME280;2026;51.002;13.668;2023-05-10T21:04:18;98749.16;;;14.68;85.09
4024;BME280;2026;51.002;13.668;2023-05-10T21:09:23;98753.81;;;14.61;84.99
4024;BME280;2026;51.002;13.668;2023-05-10T21:14:26;98752.69;;;14.56;84.82
4024;BME280;2026;51.002;13.668;2023-05-10T21:19:28;98754.47;;;14.51;84.91
4024;BME280;2026;51.002;13.668;2023-05-10T21:24:33;98758.91;;;14.45;84.93
4024;BME280;2026;51.002;13.668;2023-05-10T21:29:36;98758.41;;;14.31;85.51
4024;BME280;2026;51.002;13.668;2023-05-10T21:34:39;98752.69;;;14.17;86.95
4024;BME280;2026;51.002;13.668;2023-05-10T21:39:43;98764.69;;;14.25;85.98
4024;BME280;2026;51.002;13.668;2023-05-10T21:44:46;98758.69;;;14.12;86.45
4024;BME280;2026;51.002;13.668;2023-05-10T21:49:49;98748.25;;;14.00;86.88
4024;BME280;2026;51.002;13.668;2023-05-10T21:54:54;98761.81;;;14.09;86.91
4024;BME280;2026;51.002;13.668;2023-05-10T21:59:57;98767.81;;;13.87;87.09
4024;BME280;2026;51.002;13.668;2023-05-10T22:05:00;98764.31;;;13.82;87.35
4024;BME280;2026;51.002;13.668;2023-05-10T22:10:05;98763.09;;;13.72;87.84
4024;BME280;2026;51.002;13.668;2023-05-10T22:15:09;98763.75;;;13.63;87.53
4024;BME280;2026;51.002;13.668;2023-05-10T22:20:12;98767.72;;;13.65;87.77
4024;BME280;2026;51.002;13.668;2023-05-10T22:25:17;98776.19;;;13.50;87.34
4024;BME280;2026;51.002;13.668;2023-05-10T22:30:20;98768.44;;;13.43;89.07
4024;BME280;2026;51.002;13.668;2023-05-10T22:35:23;98764.84;;;13.32;88.88
4024;BME280;2026;51.002;13.668;2023-05-10T22:40:27;98764.16;;;13.25;88.85
4024;BME280;2026;51.002;13.668;2023-05-10T22:45:30;98766.66;;;13.32;88.35
4024;BME280;2026;51.002;13.668;2023-05-10T22:50:33;98773.94;;;13.13;89.72
4024;BME280;2026;51.002;13.668;2023-05-10T22:55:38;98773.38;;;13.11;90.05
4024;BME280;2026;51.002;13.668;2023-05-10T23:00:41;98774.97;;;13.12;89.47
4024;BME280;2026;51.002;13.668;2023-05-10T23:05:44;98774.16;;;13.11;89.23
4024;BME280;2026;51.002;13.668;2023-05-10T23:10:49;98767.50;;;13.20;89.34
4024;BME280;2026;51.002;13.668;2023-05-10T23:15:52;98769.56;;;13.18;89.74
4024;BME280;2026;51.002;13.668;2023-05-10T23:20:55;98764.22;;;13.13;90.52
4024;BME280;2026;51.002;13.668;2023-05-10T23:25:59;98774.81;;;13.18;90.32
4024;BME280;2026;51.002;13.668;2023-05-10T23:31:02;98773.06;;;13.07;91.39
4024;BME280;2026;51.002;13.668;2023-05-10T23:36:05;98767.09;;;13.00;91.55
4024;BME280;2026;51.002;13.668;2023-05-10T23:41:10;98772.38;;;13.00;90.69
4024;BME280;2026;51.002;13.668;2023-05-10T23:46:13;98772.63;;;12.86;91.23
4024;BME280;2026;51.002;13.668;2023-05-10T23:51:16;98769.78;;;12.88;91.12
4024;BME280;2026;51.002;13.668;2023-05-10T23:56:20;98761.25;;;12.69;91.93
